createdAt,value
2022-08-28T00:02:07.662Z,99.90
2022-08-28T00:04:35.839Z,99.90
2022-08-28T00:07:02.954Z,99.90
2022-08-28T00:09:29.767Z,99.90
2022-08-28T00:11:56.745Z,99.90
2022-08-28T04:01:55.199Z,99.90
2022-08-28T04:04:27.839Z,99.90
2022-08-28T04:06:54.611Z,99.90
2022-08-28T04:26:53.597Z,99.90
2022-08-28T08:34:45.722Z,99.90
2022-08-28T08:37:15.474Z,99.90
2022-08-28T08:39:43.188Z,99.90
2022-08-28T08:42:26.491Z,99.90
2022-08-28T08:44:56.111Z,99.90
2022-08-28T08:47:41.850Z,99.90
2022-08-28T08:50:20.889Z,99.90
2022-08-28T08:52:57.366Z,99.90
2022-08-28T08:55:35.449Z,99.90
2022-08-28T08:58:19.983Z,99.90
2022-08-28T09:03:44.309Z,99.90
2022-08-28T09:07:00.431Z,99.90
2022-08-28T09:09:37.031Z,99.90
2022-08-28T09:12:09.416Z,99.90
2022-08-28T09:15:05.409Z,99.90
2022-08-28T09:17:41.410Z,99.90
2022-08-28T09:20:14.944Z,99.90
2022-08-28T09:22:47.862Z,99.90
2022-08-28T09:25:47.532Z,99.90
2022-08-28T09:28:27.211Z,99.90
2022-08-28T09:49:30.909Z,99.90
2022-08-28T09:51:59.577Z,99.90
2022-08-28T09:54:33.175Z,99.90
2022-08-28T09:57:01.185Z,99.90
2022-08-28T09:59:29.130Z,99.90
2022-08-28T10:02:01.989Z,99.90
2022-08-28T10:13:02.312Z,99.90
2022-08-28T10:18:15.430Z,99.90
2022-08-28T10:21:01.191Z,99.90
2022-08-28T10:23:39.689Z,99.90
2022-08-28T10:26:34.767Z,99.40
2022-08-28T10:29:06.285Z,98.70
2022-08-28T10:31:44.996Z,97.80
2022-08-28T10:34:42.032Z,98.40
2022-08-28T10:37:14.582Z,98.00
2022-08-28T10:40:08.828Z,98.00
2022-08-28T10:42:42.973Z,97.60
2022-08-28T10:45:26.616Z,99.90
2022-08-28T10:48:19.793Z,98.30
2022-08-28T10:51:07.343Z,98.20
2022-08-28T10:53:37.178Z,98.40
2022-08-28T10:56:08.957Z,98.30
2022-08-28T10:58:42.528Z,98.00
2022-08-28T11:01:24.763Z,97.90
2022-08-28T11:03:52.602Z,97.40
2022-08-28T11:06:38.038Z,95.40
2022-08-28T11:09:29.269Z,95.40
2022-08-28T11:12:02.069Z,95.70
2022-08-28T11:14:29.802Z,95.40
2022-08-28T11:17:22.730Z,95.10
2022-08-28T11:19:58.075Z,94.80
2022-08-28T11:22:34.186Z,95.00
2022-08-28T11:25:42.985Z,95.20
2022-08-28T11:28:24.825Z,94.90
2022-08-28T11:31:03.841Z,94.50
2022-08-28T11:33:39.472Z,95.00
2022-08-28T11:36:25.351Z,95.20
2022-08-28T11:38:52.116Z,95.20
2022-08-28T11:41:31.786Z,95.60
2022-08-28T11:44:13.578Z,95.10
2022-08-28T11:46:44.830Z,98.20
2022-08-28T11:49:31.850Z,94.70
2022-08-28T11:52:23.565Z,95.20
2022-08-28T11:54:56.657Z,95.10
2022-08-28T11:57:51.057Z,95.80
2022-08-28T12:00:28.884Z,95.50
2022-08-28T12:03:13.700Z,95.10
2022-08-28T12:05:46.993Z,95.00
2022-08-28T12:08:56.722Z,94.80
2022-08-28T12:11:41.882Z,94.70
2022-08-28T12:14:34.927Z,95.00
2022-08-28T12:17:01.625Z,94.60
2022-08-28T12:19:43.012Z,94.20
2022-08-28T12:22:22.611Z,94.30
2022-08-28T12:25:01.774Z,93.60
2022-08-28T12:27:32.130Z,93.80
2022-08-28T12:30:05.450Z,94.00
2022-08-28T12:32:59.671Z,93.70
2022-08-28T12:35:29.853Z,92.80
2022-08-28T12:37:57.308Z,92.90
2022-08-28T12:40:50.772Z,93.20
2022-08-28T12:43:34.879Z,94.70
2022-08-28T12:46:06.915Z,95.70
2022-08-28T12:51:38.901Z,90.00
2022-08-28T12:54:08.206Z,89.40
2022-08-28T12:56:38.360Z,90.10
2022-08-28T12:59:36.159Z,90.30
2022-08-28T13:02:28.332Z,89.90
2022-08-28T13:05:04.949Z,90.20
2022-08-28T13:07:38.174Z,90.00
2022-08-28T13:10:24.423Z,89.60
2022-08-28T13:13:05.373Z,88.80
2022-08-28T13:15:57.854Z,88.70
2022-08-28T13:19:04.032Z,88.80
2022-08-28T13:21:35.147Z,87.00
2022-08-28T13:24:22.067Z,87.90
2022-08-28T13:27:22.868Z,87.40
2022-08-28T13:30:08.038Z,86.70
2022-08-28T13:32:38.996Z,87.90
2022-08-28T13:37:55.431Z,87.30
2022-08-28T13:40:55.679Z,87.70
2022-08-28T13:43:15.867Z,87.30
2022-08-28T13:45:48.169Z,88.00
2022-08-28T13:48:27.054Z,86.40
2022-08-28T13:50:59.980Z,86.80
2022-08-28T13:53:28.919Z,85.50
2022-08-28T13:55:56.218Z,85.30
2022-08-28T13:58:23.340Z,87.00
2022-08-28T14:00:53.549Z,86.80
2022-08-28T14:03:36.230Z,86.60
2022-08-28T14:06:11.529Z,85.90
2022-08-28T14:08:43.288Z,86.20
2022-08-28T14:11:13.004Z,90.30
2022-08-28T14:13:40.698Z,87.50
2022-08-28T14:16:16.708Z,84.10
2022-08-28T14:18:43.672Z,83.40
2022-08-28T14:21:10.380Z,87.70
2022-08-28T14:23:39.328Z,84.70
2022-08-28T14:26:06.273Z,81.30
2022-08-28T14:28:37.881Z,87.80
2022-08-28T14:31:08.153Z,91.00
2022-08-28T14:33:40.059Z,86.80
2022-08-28T14:36:20.982Z,85.40
2022-08-28T14:41:18.085Z,78.30
2022-08-28T14:43:45.360Z,79.30
2022-08-28T14:46:17.158Z,77.40
2022-08-28T14:48:46.595Z,78.20
2022-08-28T14:51:20.095Z,77.00
2022-08-28T14:53:46.899Z,80.70
2022-08-28T14:56:15.896Z,76.30
2022-08-28T14:58:42.841Z,96.10
2022-08-28T15:01:09.723Z,95.30
2022-08-28T15:06:06.873Z,72.80
2022-08-28T15:08:35.164Z,73.90
2022-08-28T15:11:16.543Z,74.10
2022-08-28T15:13:48.119Z,73.10
2022-08-28T15:16:20.438Z,71.70
2022-08-28T15:18:50.192Z,71.50
2022-08-28T15:21:35.354Z,72.30
2022-08-28T15:24:03.885Z,71.90
2022-08-28T15:26:34.015Z,70.90
2022-08-28T15:29:04.185Z,71.40
2022-08-28T15:31:33.399Z,70.80
2022-08-28T15:36:36.574Z,92.50
2022-08-28T15:44:17.110Z,71.60
2022-08-28T15:46:55.627Z,89.60
2022-08-28T15:51:50.982Z,68.50
2022-08-28T15:54:18.479Z,69.20
2022-08-28T16:01:48.202Z,71.10
2022-08-28T16:04:17.896Z,73.00
2022-08-28T16:06:45.265Z,73.60
2022-08-28T16:09:12.230Z,80.20
2022-08-28T16:11:42.516Z,74.70
2022-08-28T16:14:10.261Z,75.60
2022-08-28T16:16:39.995Z,76.70
2022-08-28T16:19:13.392Z,76.80
2022-08-28T16:21:40.158Z,77.00
2022-08-28T16:24:09.826Z,77.10
2022-08-28T16:26:39.516Z,77.00
2022-08-28T16:29:08.527Z,77.20
2022-08-28T16:31:35.788Z,77.40
2022-08-28T16:34:05.646Z,77.40
2022-08-28T16:36:38.254Z,78.10
2022-08-28T16:39:10.746Z,83.20
2022-08-28T16:41:39.039Z,83.10
2022-08-28T16:44:05.854Z,82.90
2022-08-28T16:46:32.797Z,83.30
2022-08-28T16:48:59.721Z,83.30
2022-08-28T16:51:29.653Z,83.50
2022-08-28T16:53:59.175Z,82.00
2022-08-28T16:56:26.549Z,82.30
2022-08-28T16:58:53.500Z,82.60
2022-08-28T17:01:25.515Z,82.90
2022-08-28T17:03:54.488Z,79.60
2022-08-28T17:06:25.748Z,79.40
2022-08-28T17:08:56.701Z,79.60
2022-08-28T17:11:31.035Z,79.80
2022-08-28T17:14:01.092Z,79.60
2022-08-28T17:16:34.760Z,80.20
2022-08-28T17:19:01.642Z,79.60
2022-08-28T17:22:07.879Z,79.90
2022-08-28T17:24:36.892Z,88.30
2022-08-28T17:27:05.837Z,89.30
2022-08-28T17:29:34.619Z,84.80
2022-08-28T17:32:01.388Z,84.50
2022-08-28T17:34:30.784Z,83.60
2022-08-28T17:36:59.648Z,84.20
2022-08-28T17:39:29.441Z,84.30
2022-08-28T17:42:01.171Z,80.50
2022-08-28T17:44:28.176Z,82.30
2022-08-28T17:46:55.178Z,82.40
2022-08-28T17:49:22.646Z,82.20
2022-08-28T17:51:49.698Z,82.20
2022-08-28T17:54:21.463Z,83.20
2022-08-28T17:56:48.852Z,83.40
2022-08-28T17:59:17.782Z,83.60
2022-08-28T18:01:46.459Z,83.60
2022-08-28T18:04:17.882Z,84.70
2022-08-28T18:06:47.070Z,84.90
2022-08-28T18:09:14.671Z,85.30
2022-08-28T18:11:41.884Z,86.00
2022-08-28T18:14:10.974Z,86.50
2022-08-28T18:19:09.588Z,82.40
2022-08-28T18:21:37.574Z,83.20
2022-08-28T18:24:05.329Z,83.50
2022-08-28T18:26:32.167Z,83.60
2022-08-28T18:28:59.357Z,83.60
2022-08-28T18:31:28.586Z,83.50
2022-08-28T18:33:55.494Z,84.20
2022-08-28T18:36:23.198Z,84.50
2022-08-28T18:38:50.475Z,84.50
2022-08-28T18:41:17.698Z,84.50
2022-08-28T18:43:44.423Z,84.90
2022-08-28T18:48:42.649Z,83.70
2022-08-28T18:51:11.472Z,84.80
2022-08-28T18:53:38.981Z,84.80
2022-08-28T18:56:09.247Z,84.80
2022-08-28T18:58:39.372Z,85.30
2022-08-28T19:01:09.282Z,85.60
2022-08-28T19:03:38.219Z,87.30
2022-08-28T19:06:06.338Z,96.50
2022-08-28T19:08:37.720Z,95.50
2022-08-28T19:11:12.664Z,95.50
2022-08-28T19:13:41.599Z,96.10
2022-08-28T19:16:09.383Z,96.30
2022-08-28T19:18:36.479Z,95.90
2022-08-28T19:21:16.440Z,96.30
2022-08-28T19:23:55.231Z,99.90
2022-08-28T19:26:24.496Z,99.90
2022-08-28T19:28:51.512Z,99.90
2022-08-28T19:31:18.660Z,99.90
2022-08-28T19:36:14.300Z,91.50
2022-08-28T19:38:41.644Z,97.60
2022-08-28T19:41:12.879Z,99.60
2022-08-28T19:43:42.870Z,99.90
2022-08-28T19:46:18.591Z,99.90
2022-08-28T19:48:48.679Z,99.90
2022-08-28T19:51:23.164Z,99.90
2022-08-28T19:53:56.757Z,99.90
2022-08-28T19:56:27.238Z,99.90
2022-08-28T20:01:21.700Z,97.30
2022-08-28T20:06:15.693Z,99.90
2022-08-28T20:08:44.665Z,99.90
2022-08-28T20:46:01.632Z,93.00
2022-08-28T20:48:33.332Z,93.20
2022-08-28T20:51:03.285Z,93.30
2022-08-28T20:53:37.331Z,93.20
2022-08-28T20:56:07.871Z,93.30
2022-08-28T20:58:36.906Z,93.50
2022-08-28T21:01:05.638Z,93.30
2022-08-28T21:03:35.409Z,93.20
2022-08-28T21:06:04.270Z,93.20
2022-08-28T21:08:31.059Z,93.50
2022-08-28T21:11:00.333Z,93.30
2022-08-28T21:13:31.713Z,93.50
2022-08-28T21:15:58.442Z,93.50
2022-08-28T21:18:28.229Z,93.20
2022-08-28T21:20:55.428Z,93.10
2022-08-28T21:23:23.327Z,93.40
2022-08-28T21:25:50.275Z,93.40
2022-08-28T21:28:19.230Z,93.60
2022-08-28T21:30:46.030Z,93.60
2022-08-28T21:33:12.885Z,93.70
2022-08-28T21:35:45.151Z,93.70
2022-08-28T21:38:11.879Z,93.70
2022-08-28T21:40:41.223Z,93.80
2022-08-28T21:43:10.228Z,94.00
2022-08-28T21:45:39.674Z,94.10
2022-08-28T21:48:06.403Z,94.40
2022-08-28T21:50:35.722Z,94.40
2022-08-28T21:53:05.175Z,94.40
2022-08-28T21:55:31.941Z,94.70
2022-08-28T21:57:58.633Z,94.70
2022-08-28T22:00:25.433Z,95.20
2022-08-28T22:02:52.608Z,95.50
2022-08-28T22:05:19.986Z,95.40
2022-08-28T22:07:46.807Z,95.20
2022-08-28T22:10:14.069Z,95.30
2022-08-28T22:12:40.828Z,95.30
2022-08-28T22:15:10.509Z,95.60
2022-08-28T22:17:37.176Z,96.10
2022-08-28T22:20:04.871Z,96.10
2022-08-28T22:22:52.562Z,95.70
2022-08-28T22:25:21.844Z,95.70
2022-08-28T22:27:49.652Z,96.20
2022-08-28T22:30:16.817Z,95.60
2022-08-28T22:32:45.973Z,95.90
2022-08-28T22:35:12.811Z,96.20
2022-08-28T22:37:39.560Z,96.10
2022-08-28T22:40:09.696Z,96.30
2022-08-28T22:42:43.403Z,96.00
2022-08-28T22:45:12.891Z,96.10
2022-08-28T22:47:39.880Z,96.40
2022-08-28T22:50:07.020Z,96.10
2022-08-28T22:52:33.754Z,99.90
2022-08-28T22:55:00.513Z,99.90
2022-08-28T22:57:27.413Z,95.80
2022-08-28T22:59:54.368Z,96.10
2022-08-28T23:02:27.216Z,96.30
2022-08-28T23:04:54.434Z,96.10
2022-08-28T23:07:23.701Z,96.10
2022-08-28T23:09:50.440Z,96.30
2022-08-28T23:12:17.467Z,96.00
2022-08-28T23:14:48.573Z,96.10
2022-08-28T23:17:16.991Z,95.70
2022-08-28T23:19:43.841Z,95.70
2022-08-28T23:22:13.460Z,95.70
2022-08-28T23:24:42.980Z,96.00
2022-08-28T23:27:34.585Z,95.70
2022-08-28T23:29:58.848Z,95.90
2022-08-28T23:32:27.995Z,95.90
2022-08-28T23:34:55.139Z,96.10
2022-08-28T23:37:21.910Z,96.50
2022-08-28T23:39:49.357Z,96.10
2022-08-28T23:42:16.288Z,96.50
2022-08-28T23:44:43.142Z,96.50
2022-08-28T23:47:12.404Z,96.70
2022-08-28T23:49:42.753Z,96.90
2022-08-28T23:52:10.100Z,97.10
2022-08-28T23:54:36.857Z,97.00
2022-08-28T23:57:06.545Z,96.90
2022-08-28T23:59:33.733Z,96.80
